Time;durP1;ratioP1;P1;durP2;ratioP2;P2;SDS_P1;SDS_P2;PMS_P1;PMS_P2;Temp;Humidity;BMP_temperature;BMP_pressure;BME280_temperature;BME280_humidity;BME280_pressure;Samples;Min_cycle;Max_cycle;Signal;HPM_P1;HPM_P2
2021/04/11 00:00:30;;;;;;;9.48;7.43;;;7.20;46.70;;;;;;5090293;28;20048;-80
2021/04/11 00:02:57;;;;;;;11.65;8.00;;;7.20;46.80;;;;;;5088661;28;20016;-78
2021/04/11 00:05:26;;;;;;;13.52;8.25;;;7.10;46.90;;;;;;5096565;28;20028;-79
2021/04/11 00:07:52;;;;;;;14.40;9.77;;;7.10;46.90;;;;;;5096405;28;20024;-78
2021/04/11 00:10:22;;;;;;;15.45;8.93;;;7.10;47.00;;;;;;5096035;28;20044;-80
2021/04/11 00:12:48;;;;;;;12.00;7.97;;;7.10;46.90;;;;;;5092208;28;20017;-80
2021/04/11 00:15:15;;;;;;;11.55;7.68;;;7.10;47.10;;;;;;5073516;28;20052;-80
2021/04/11 00:17:41;;;;;;;13.68;7.85;;;7.10;47.00;;;;;;5091872;28;20023;-79
2021/04/11 00:20:08;;;;;;;15.35;8.80;;;7.10;47.10;;;;;;5091733;28;20047;-79
2021/04/11 00:22:34;;;;;;;11.77;8.55;;;7.10;47.20;;;;;;5091907;28;20390;-79
2021/04/11 00:25:00;;;;;;;13.90;8.07;;;7.10;47.10;;;;;;5092252;28;20044;-79
2021/04/11 00:27:26;;;;;;;10.05;7.40;;;7.10;47.00;;;;;;5095620;28;20020;-79
2021/04/11 00:29:52;;;;;;;12.38;7.57;;;7.10;47.00;;;;;;5095670;28;20111;-80
2021/04/11 00:32:17;;;;;;;17.35;8.65;;;7.10;47.10;;;;;;5093441;28;20078;-79
2021/04/11 00:34:43;;;;;;;12.20;6.88;;;7.10;47.00;;;;;;5092242;28;20020;-80
2021/04/11 00:37:09;;;;;;;9.60;7.22;;;7.10;47.10;;;;;;5095516;28;20036;-80
2021/04/11 00:39:35;;;;;;;12.40;9.35;;;7.10;47.10;;;;;;5095274;28;20032;-80
2021/04/11 00:42:07;;;;;;;12.55;7.97;;;7.00;47.30;;;;;;5095483;28;20066;-78
2021/04/11 00:44:33;;;;;;;11.05;7.65;;;7.00;47.40;;;;;;5094855;28;20009;-80
2021/04/11 00:47:00;;;;;;;13.10;8.63;;;7.00;47.50;;;;;;5095391;28;20397;-80
2021/04/11 00:49:38;;;;;;;13.88;8.52;;;7.00;47.70;;;;;;5095142;28;20035;-80
2021/04/11 00:52:07;;;;;;;12.43;8.95;;;6.90;47.80;;;;;;5095289;28;20032;-79
2021/04/11 00:54:33;;;;;;;12.55;9.23;;;6.90;47.70;;;;;;5076643;28;20456;-80
2021/04/11 00:57:00;;;;;;;13.32;8.20;;;6.90;47.80;;;;;;5095852;28;20115;-78
2021/04/11 00:59:26;;;;;;;13.18;9.77;;;6.80;48.00;;;;;;5105518;28;20024;-79
2021/04/11 01:01:52;;;;;;;14.25;8.60;;;6.80;48.10;;;;;;5109072;28;20396;-80
2021/04/11 01:04:19;;;;;;;11.10;8.95;;;6.70;48.30;;;;;;5095830;28;20024;-79
2021/04/11 01:06:58;;;;;;;12.88;9.18;;;6.70;48.30;;;;;;5095294;28;20016;-78
2021/04/11 01:09:34;;;;;;;12.00;8.65;;;6.70;48.30;;;;;;5105525;28;20027;-80
2021/04/11 01:12:02;;;;;;;13.98;8.52;;;6.70;48.50;;;;;;5099128;28;20024;-79
2021/04/11 01:14:30;;;;;;;12.73;8.45;;;6.70;49.10;;;;;;5096452;28;20368;-80
2021/04/11 01:16:58;;;;;;;15.63;8.05;;;6.70;48.70;;;;;;5094469;28;20070;-78
2021/04/11 01:19:34;;;;;;;21.85;9.38;;;6.70;48.60;;;;;;5076377;28;20484;-79
2021/04/11 01:22:56;;;;;;;18.60;9.50;;;6.70;48.60;;;;;;5087924;28;20099;-78
2021/04/11 01:25:28;;;;;;;17.38;9.57;;;6.70;48.70;;;;;;5012648;28;20546;-79
2021/04/11 01:27:56;;;;;;;16.98;8.23;;;6.60;48.90;;;;;;5015744;28;20539;-78
2021/04/11 01:30:32;;;;;;;15.18;8.35;;;6.60;48.90;;;;;;4999001;28;20137;-78
2021/04/11 01:33:02;;;;;;;14.20;9.50;;;6.60;49.10;;;;;;5012390;28;20530;-79
2021/04/11 01:35:29;;;;;;;13.70;9.07;;;6.60;49.10;;;;;;5012463;28;20026;-81
2021/04/11 01:37:56;;;;;;;16.15;9.15;;;6.60;49.10;;;;;;5011813;28;20455;-77
2021/04/11 01:40:34;;;;;;;13.15;8.45;;;6.60;49.10;;;;;;5012218;28;20501;-79
2021/04/11 01:43:03;;;;;;;11.65;8.27;;;6.50;49.20;;;;;;5012251;28;20033;-78
2021/04/11 01:45:30;;;;;;;13.80;9.05;;;6.50;49.30;;;;;;5013275;28;20033;-78
2021/04/11 01:47:56;;;;;;;17.25;9.90;;;6.50;49.30;;;;;;5013354;28;20057;-79
2021/04/11 01:50:22;;;;;;;12.50;8.70;;;6.50;49.30;;;;;;5012284;28;20459;-79
2021/04/11 01:52:48;;;;;;;14.30;7.93;;;6.60;49.40;;;;;;5011999;28;20442;-78
2021/04/11 01:55:15;;;;;;;18.52;9.27;;;6.50;49.40;;;;;;5020968;28;20082;-79
2021/04/11 01:57:41;;;;;;;14.38;9.30;;;6.60;49.40;;;;;;5087617;28;20018;-78
2021/04/11 02:00:10;;;;;;;11.98;8.90;;;6.50;49.50;;;;;;5075689;28;20040;-79
2021/04/11 02:02:36;;;;;;;14.75;8.63;;;6.60;49.60;;;;;;5093880;28;20380;-79
2021/04/11 02:05:04;;;;;;;18.65;10.90;;;6.60;49.50;;;;;;5093824;28;20016;-78
2021/04/11 02:07:30;;;;;;;15.02;9.05;;;6.60;49.50;;;;;;5092745;28;20105;-78
2021/04/11 02:09:56;;;;;;;13.73;9.02;;;6.60;49.50;;;;;;5075550;28;20532;-78
2021/04/11 02:12:22;;;;;;;14.88;8.40;;;6.60;49.60;;;;;;5093937;28;20051;-78
2021/04/11 02:14:47;;;;;;;12.25;9.82;;;6.60;49.60;;;;;;5093339;28;20031;-77
2021/04/11 02:17:15;;;;;;;14.30;10.07;;;6.50;49.60;;;;;;5093505;28;20162;-78
2021/04/11 02:19:41;;;;;;;11.93;8.82;;;6.50;49.70;;;;;;5093542;28;20028;-78
2021/04/11 02:22:19;;;;;;;14.80;10.15;;;6.50;49.90;;;;;;5093541;28;20020;-78
2021/04/11 02:24:45;;;;;;;15.55;9.52;;;6.50;50.10;;;;;;5093471;28;20036;-79
2021/04/11 02:27:15;;;;;;;15.98;8.73;;;6.40;50.00;;;;;;5075135;28;20024;-77
2021/04/11 02:29:45;;;;;;;13.85;8.48;;;6.40;50.10;;;;;;5093791;28;20393;-78
2021/04/11 02:32:11;;;;;;;14.55;9.50;;;6.40;50.70;;;;;;5093066;28;20024;-77
2021/04/11 02:34:37;;;;;;;11.60;8.48;;;6.40;50.20;;;;;;5093801;28;20031;-78
2021/04/11 02:37:07;;;;;;;12.30;8.80;;;6.30;50.20;;;;;;5093877;28;20020;-79
2021/04/11 02:39:36;;;;;;;14.40;9.50;;;6.40;50.30;;;;;;5103399;28;20077;-79
2021/04/11 02:42:12;;;;;;;16.88;8.55;;;6.40;50.40;;;;;;5094420;28;20047;-78
2021/04/11 02:44:43;;;;;;;19.23;9.82;;;6.40;50.50;;;;;;5093270;28;20135;-79
2021/04/11 02:47:10;;;;;;;16.40;9.55;;;6.40;50.40;;;;;;5055060;28;20048;-78
2021/04/11 02:49:36;;;;;;;12.52;8.85;;;6.40;50.40;;;;;;5091909;28;20516;-78
2021/04/11 02:52:06;;;;;;;15.10;9.18;;;6.40;50.30;;;;;;5093223;28;20110;-77
2021/04/11 02:54:35;;;;;;;16.92;9.15;;;6.50;50.40;;;;;;5092823;28;20107;-77
2021/04/11 02:57:03;;;;;;;17.17;10.15;;;6.50;50.40;;;;;;5092982;28;20473;-76
2021/04/11 02:59:28;;;;;;;17.90;10.20;;;6.60;50.60;;;;;;5092855;28;20358;-76
2021/04/11 03:01:56;;;;;;;11.52;9.43;;;6.60;50.60;;;;;;5092912;28;20039;-76
2021/04/11 03:04:23;;;;;;;16.45;10.20;;;6.60;50.60;;;;;;5092672;28;20089;-76
2021/04/11 03:06:59;;;;;;;18.38;11.27;;;6.60;50.60;;;;;;5092768;28;20020;-77
2021/04/11 03:09:39;;;;;;;18.70;11.50;;;6.70;50.70;;;;;;5093211;28;20054;-76
2021/04/11 03:12:05;;;;;;;12.57;9.10;;;6.70;50.50;;;;;;5092989;28;20012;-77
2021/04/11 03:14:35;;;;;;;18.50;10.48;;;6.80;50.40;;;;;;5092683;28;20032;-77
2021/04/11 03:17:07;;;;;;;24.40;10.98;;;6.80;50.30;;;;;;5093156;28;20472;-78
2021/04/11 03:19:37;;;;;;;16.98;10.35;;;6.90;50.00;;;;;;5092109;28;20074;-78
2021/04/11 03:22:03;;;;;;;14.95;9.18;;;7.00;50.10;;;;;;5075224;28;20089;-78
2021/04/11 03:24:29;;;;;;;20.92;9.95;;;7.10;49.80;;;;;;5092644;28;20024;-78
2021/04/11 03:27:09;;;;;;;18.00;9.98;;;7.10;49.50;;;;;;5092405;28;20043;-78
2021/04/11 03:29:40;;;;;;;13.73;10.45;;;7.20;49.30;;;;;;5093448;28;20017;-78
2021/04/11 03:32:18;;;;;;;16.63;9.70;;;7.30;49.20;;;;;;5093105;28;20680;-78
2021/04/11 03:34:45;;;;;;;15.32;9.98;;;7.30;49.10;;;;;;5093085;28;20024;-77
2021/04/11 03:37:13;;;;;;;15.00;8.48;;;7.40;48.90;;;;;;5092536;28;20036;-79
2021/04/11 03:39:39;;;;;;;16.10;9.57;;;7.40;48.70;;;;;;5092798;28;20384;-77
2021/04/11 03:42:09;;;;;;;13.35;9.82;;;7.50;48.50;;;;;;5092211;28;20141;-77
2021/04/11 03:44:35;;;;;;;15.05;9.80;;;7.50;48.30;;;;;;5092433;28;20024;-78
2021/04/11 03:47:10;;;;;;;18.58;10.05;;;7.60;48.20;;;;;;5092396;28;20020;-78
2021/04/11 03:50:04;;;;;;;16.13;10.63;;;7.70;48.20;;;;;;5092116;28;20539;-76
2021/04/11 03:52:33;;;;;;;14.23;9.55;;;7.70;48.50;;;;;;5092142;28;20064;-77
2021/04/11 03:55:03;;;;;;;23.45;11.57;;;7.70;48.80;;;;;;5092550;28;20423;-77
2021/04/11 03:57:49;;;;;;;18.52;11.07;;;7.70;49.10;;;;;;5092083;28;20112;-77
2021/04/11 04:00:28;;;;;;;25.13;11.55;;;7.70;49.10;;;;;;5092734;28;20035;-78
2021/04/11 04:02:57;;;;;;;22.20;12.35;;;7.70;49.20;;;;;;5096010;28;20052;-76
2021/04/11 04:05:27;;;;;;;24.83;12.10;;;7.70;49.20;;;;;;5096319;28;20099;-77
2021/04/11 04:07:57;;;;;;;17.10;10.95;;;7.80;49.30;;;;;;5093256;28;20024;-76
2021/04/11 04:10:38;;;;;;;24.95;12.02;;;7.80;49.10;;;;;;5084823;28;20050;-76
2021/04/11 04:13:40;;;;;;;21.65;12.50;;;7.90;49.00;;;;;;5095840;28;20020;-78
2021/04/11 04:16:28;;;;;;;23.35;13.10;;;7.90;48.90;;;;;;5095870;28;20513;-78
2021/04/11 04:19:22;;;;;;;20.27;11.32;;;7.90;48.90;;;;;;5085078;28;20424;-76
2021/04/11 04:21:54;;;;;;;27.45;13.23;;;7.90;48.80;;;;;;5095920;28;20027;-77
2021/04/11 04:24:29;;;;;;;18.67;10.90;;;8.00;49.00;;;;;;5095889;28;20090;-76
2021/04/11 04:27:17;;;;;;;26.58;12.32;;;8.00;49.20;;;;;;5095840;28;20473;-81
2021/04/11 04:29:53;;;;;;;;;;;8.20;49.00;;;;;;5078022;28;20031;-79
2021/04/11 04:32:30;;;;;;;26.38;11.70;;;8.50;48.90;;;;;;5092929;28;19903;-80
2021/04/11 04:35:06;;;;;;;19.35;10.45;;;8.80;47.50;;;;;;5096005;28;20054;-80
2021/04/11 04:37:44;;;;;;;20.90;11.05;;;9.30;46.50;;;;;;5077560;28;20024;-81
2021/04/11 04:40:12;;;;;;;23.08;11.25;;;9.80;45.50;;;;;;5095505;28;20036;-80
2021/04/11 04:42:49;;;;;;;21.13;11.30;;;10.30;44.50;;;;;;5096041;28;20048;-78
2021/04/11 04:45:22;;;;;;;20.23;12.38;;;10.70;43.20;;;;;;5096218;28;20032;-79
2021/04/11 04:47:53;;;;;;;22.85;12.60;;;11.00;42.50;;;;;;5095501;28;20016;-78
2021/04/11 04:50:24;;;;;;;22.92;12.05;;;11.40;42.00;;;;;;5097959;28;20020;-78
2021/04/11 04:53:07;;;;;;;19.25;12.02;;;11.80;41.10;;;;;;5096163;28;20090;-79
2021/04/11 04:55:36;;;;;;;24.90;13.73;;;12.50;40.30;;;;;;5095935;28;20361;-79
2021/04/11 04:58:09;;;;;;;21.83;12.43;;;13.00;39.20;;;;;;5076863;28;20027;-79
2021/04/11 05:00:44;;;;;;;20.85;12.55;;;13.60;38.20;;;;;;5094961;28;20032;-78
2021/04/11 05:03:21;;;;;;;23.20;13.00;;;14.10;37.50;;;;;;5095011;28;20103;-79
2021/04/11 05:05:54;;;;;;;23.27;13.27;;;14.60;36.60;;;;;;5076983;28;20024;-77
2021/04/11 05:08:28;;;;;;;18.20;13.00;;;15.00;35.70;;;;;;5095888;28;20027;-81
2021/04/11 05:11:11;;;;;;;21.23;12.40;;;15.40;35.30;;;;;;5095591;28;20096;-79
2021/04/11 05:13:44;;;;;;;15.18;10.45;;;15.90;34.40;;;;;;5081237;28;20074;-79
2021/04/11 05:16:25;;;;;;;21.15;10.32;;;16.20;33.60;;;;;;5094851;28;20511;-78
2021/04/11 05:19:04;;;;;;;17.83;11.38;;;16.50;32.80;;;;;;5094674;28;20074;-78
2021/04/11 05:21:35;;;;;;;14.57;10.60;;;16.80;32.60;;;;;;5094879;28;20073;-77
2021/04/11 05:24:16;;;;;;;16.58;10.55;;;17.30;31.60;;;;;;5094864;28;20090;-79
2021/04/11 05:26:43;;;;;;;20.08;10.85;;;17.60;31.10;;;;;;5094691;28;20020;-79
2021/04/11 05:29:24;;;;;;;12.90;9.35;;;17.90;30.50;;;;;;5076608;28;20020;-78
2021/04/11 05:31:52;;;;;;;14.30;10.05;;;17.70;30.40;;;;;;5094518;28;20023;-79
2021/04/11 05:34:19;;;;;;;19.85;10.68;;;17.90;30.20;;;;;;5093190;28;20028;-78
2021/04/11 05:37:05;;;;;;;15.02;10.90;;;17.20;30.20;;;;;;5094800;28;20447;-77
2021/04/11 05:40:08;;;;;;;19.35;11.10;;;16.10;31.40;;;;;;5092325;28;20502;-77
2021/04/11 05:42:48;;;;;;;16.63;10.75;;;14.90;32.60;;;;;;5094303;28;20035;-78
2021/04/11 05:45:25;;;;;;;13.57;10.18;;;14.00;34.20;;;;;;5076362;28;20032;-78
2021/04/11 05:48:37;;;;;;;17.02;11.52;;;13.70;35.10;;;;;;5093977;28;20036;-78
2021/04/11 05:51:12;;;;;;;14.35;10.80;;;13.60;35.60;;;;;;5085394;28;20058;-78
2021/04/11 05:53:47;;;;;;;20.50;10.20;;;13.50;35.70;;;;;;5094419;28;20099;-79
2021/04/11 05:56:20;;;;;;;15.05;10.18;;;14.10;35.80;;;;;;5093966;28;20016;-77
2021/04/11 05:58:52;;;;;;;16.15;10.05;;;15.70;34.20;;;;;;5093660;28;20461;-80
2021/04/11 06:01:29;;;;;;;17.60;11.55;;;16.90;32.10;;;;;;5093801;28;20057;-78
2021/04/11 06:04:03;;;;;;;20.20;11.90;;;17.70;31.10;;;;;;5094023;28;20024;-78
2021/04/11 06:06:52;;;;;;;13.60;10.25;;;18.70;30.00;;;;;;5075444;28;20032;-78
2021/04/11 06:09:48;;;;;;;12.57;9.80;;;19.60;28.90;;;;;;5074313;28;20119;-79
2021/04/11 06:12:32;;;;;;;13.90;10.23;;;20.90;28.70;;;;;;5083613;28;20024;-78
2021/04/11 06:15:23;;;;;;;15.40;10.68;;;22.00;27.80;;;;;;5093141;28;20112;-78
2021/04/11 06:17:51;;;;;;;12.07;9.68;;;22.80;26.70;;;;;;5093408;28;20024;-80
2021/04/11 06:20:18;;;;;;;16.85;11.25;;;22.80;25.80;;;;;;5093221;28;20085;-77
2021/04/11 06:23:18;;;;;;;14.45;9.20;;;23.20;25.90;;;;;;5093681;28;20031;-79
2021/04/11 06:25:49;;;;;;;13.82;9.10;;;23.80;25.90;;;;;;5078481;28;20089;-79
2021/04/11 06:28:44;;;;;;;14.13;10.32;;;24.40;24.90;;;;;;5092965;28;20035;-78
2021/04/11 06:31:33;;;;;;;12.48;9.60;;;24.70;24.90;;;;;;5093178;28;20042;-79
2021/04/11 06:34:20;;;;;;;16.17;11.82;;;25.30;24.80;;;;;;5093271;28;20489;-79
2021/04/11 06:36:50;;;;;;;20.88;10.95;;;25.80;24.00;;;;;;5094499;28;20105;-86
2021/04/11 06:39:28;;;;;;;18.10;11.23;;;25.90;23.60;;;;;;5093661;28;20039;-84
2021/04/11 06:42:21;;;;;;;20.35;11.43;;;25.80;23.70;;;;;;5094777;28;20020;-85
2021/04/11 06:45:04;;;;;;;19.60;10.50;;;25.70;24.00;;;;;;5101617;28;20075;-86
2021/04/11 06:48:08;;;;;;;22.25;10.75;;;25.50;23.60;;;;;;5089318;28;20032;-85
2021/04/11 06:50:41;;;;;;;14.82;9.88;;;25.60;24.00;;;;;;5096025;28;20078;-85
2021/04/11 06:53:25;;;;;;;16.45;11.43;;;25.80;23.90;;;;;;5094837;28;20422;-88
2021/04/11 06:56:20;;;;;;;17.88;10.70;;;26.00;23.80;;;;;;5076247;28;20031;-85
2021/04/11 06:59:13;;;;;;;17.67;10.55;;;26.30;23.80;;;;;;5094470;28;20020;-84
2021/04/11 07:01:54;;;;;;;15.18;11.10;;;27.20;23.60;;;;;;5093809;28;20016;-88
2021/04/11 07:04:29;;;;;;;20.60;10.90;;;28.00;23.20;;;;;;5095896;28;20119;-89
2021/04/11 07:07:22;;;;;;;13.57;10.57;;;28.00;22.60;;;;;;5096509;28;20096;-92
2021/04/11 07:09:51;;;;;;;17.70;11.23;;;27.90;22.70;;;;;;5098922;28;20071;-84
2021/04/11 07:12:34;;;;;;;18.85;11.10;;;27.50;22.70;;;;;;5094836;28;20089;-86
2021/04/11 07:15:19;;;;;;;15.55;10.90;;;27.70;22.70;;;;;;5076607;28;20055;-81
2021/04/11 07:17:48;;;;;;;18.42;11.10;;;27.90;22.80;;;;;;5093576;28;20024;-81
2021/04/11 07:20:35;;;;;;;19.13;10.80;;;27.80;22.30;;;;;;5074542;28;20051;-79
2021/04/11 07:23:31;;;;;;;17.80;11.00;;;28.20;22.70;;;;;;5092406;28;20020;-81
2021/04/11 07:26:10;;;;;;;12.88;10.43;;;28.10;22.40;;;;;;5092684;28;20048;-83
2021/04/11 07:28:54;;;;;;;16.83;11.02;;;28.20;22.60;;;;;;5093304;28;20099;-78
2021/04/11 07:31:50;;;;;;;15.80;11.27;;;29.00;22.60;;;;;;5089017;28;20727;-83
2021/04/11 07:34:31;;;;;;;14.73;10.88;;;28.60;22.20;;;;;;5092955;28;20024;-83
2021/04/11 07:37:19;;;;;;;17.05;10.77;;;27.20;21.90;;;;;;5078504;28;20024;-82
2021/04/11 07:39:55;;;;;;;16.35;11.13;;;26.60;22.60;;;;;;5088163;28;20029;-82
2021/04/11 07:42:37;;;;;;;16.23;10.43;;;25.50;22.70;;;;;;5095609;28;20020;-79
2021/04/11 07:45:06;;;;;;;15.68;9.70;;;26.00;23.20;;;;;;5092462;28;20543;-88
2021/04/11 07:47:59;;;;;;;15.02;9.95;;;27.30;22.70;;;;;;5085975;28;20016;-82
2021/04/11 07:50:30;;;;;;;17.30;9.90;;;28.00;22.30;;;;;;5072225;28;20394;-83
2021/04/11 07:53:34;;;;;;;12.88;8.90;;;27.90;21.80;;;;;;5095433;28;20013;-84
2021/04/11 07:56:18;;;;;;;18.27;10.93;;;28.40;22.40;;;;;;4991188;28;20066;-82
2021/04/11 07:59:02;;;;;;;18.67;11.73;;;27.90;22.20;;;;;;5082883;28;20040;-86
2021/04/11 08:01:56;;;;;;;15.68;10.43;;;27.30;22.10;;;;;;5096901;28;20023;-90
2021/04/11 08:04:31;;;;;;;16.92;10.23;;;27.40;22.40;;;;;;5090639;28;20021;-89
2021/04/11 08:07:20;;;;;;;16.83;9.60;;;28.30;22.10;;;;;;5096269;28;20055;-84
2021/04/11 08:09:56;;;;;;;14.07;9.10;;;29.30;22.00;;;;;;5095400;28;20042;-88
2021/04/11 08:12:48;;;;;;;13.17;9.53;;;29.40;21.20;;;;;;5095225;28;20045;-84
2021/04/11 08:15:53;;;;;;;12.77;8.85;;;28.60;21.40;;;;;;5101128;28;20845;-88
2021/04/11 08:19:24;;;;;;;11.85;8.63;;;27.30;21.90;;;;;;5062658;28;20365;-88
2021/04/11 08:22:00;;;;;;;10.68;7.68;;;28.10;22.40;;;;;;5001288;28;20041;-90
2021/04/11 08:24:45;;;;;;;17.80;8.43;;;28.00;21.70;;;;;;4992663;28;20028;-90
2021/04/11 08:27:30;;;;;;;13.02;8.40;;;28.80;21.80;;;;;;4976068;28;20615;-87
2021/04/11 08:30:19;;;;;;;10.60;7.80;;;29.80;21.30;;;;;;5004065;28;20058;-83
2021/04/11 08:33:22;;;;;;;13.20;7.72;;;30.30;21.30;;;;;;4989757;28;20045;-87
2021/04/11 08:35:54;;;;;;;8.35;6.80;;;29.40;21.40;;;;;;5006480;28;20033;-87
2021/04/11 08:38:52;;;;;;;11.02;7.05;;;29.10;21.10;;;;;;5014987;28;20027;-85
2021/04/11 08:41:51;;;;;;;9.70;7.15;;;28.80;21.20;;;;;;5010992;28;20002;-87
2021/04/11 08:44:32;;;;;;;12.98;7.22;;;28.40;21.60;;;;;;5004367;28;20126;-81
2021/04/11 08:47:16;;;;;;;9.68;6.90;;;27.80;21.40;;;;;;5011090;28;20573;-83
2021/04/11 08:49:57;;;;;;;13.52;8.40;;;27.20;21.70;;;;;;4988166;28;20340;-85
2021/04/11 08:53:07;;;;;;;12.43;8.02;;;26.50;22.30;;;;;;5047028;28;20028;-84
2021/04/11 08:55:53;;;;;;;20.17;8.20;;;27.50;22.70;;;;;;5096661;28;20046;-85
2021/04/11 08:58:54;;;;;;;11.48;7.55;;;28.20;22.00;;;;;;5076290;28;20016;-87
2021/04/11 09:01:31;;;;;;;16.27;7.80;;;28.30;21.90;;;;;;5097290;28;20103;-89
2021/04/11 09:04:21;;;;;;;12.30;7.25;;;28.90;21.90;;;;;;5080365;28;20032;-91
2021/04/11 09:07:14;;;;;;;10.60;7.10;;;30.00;21.30;;;;;;5084680;28;20024;-86
2021/04/11 09:09:46;;;;;;;13.48;7.05;;;30.80;21.00;;;;;;5097508;28;20518;-86
2021/04/11 09:12:17;;;;;;;11.70;7.10;;;30.70;20.90;;;;;;5096109;28;20024;-84
2021/04/11 09:15:04;;;;;;;12.88;7.03;;;30.40;20.90;;;;;;5095200;28;20031;-87
2021/04/11 09:17:30;;;;;;;12.02;7.25;;;30.40;21.00;;;;;;5079108;28;20059;-84
2021/04/11 09:20:14;;;;;;;9.87;6.63;;;29.60;20.80;;;;;;5105159;28;20016;-82
2021/04/11 09:23:22;;;;;;;12.07;6.88;;;29.30;21.40;;;;;;5091370;28;20056;-86
2021/04/11 09:26:25;;;;;;;8.70;6.00;;;30.10;21.70;;;;;;5075292;28;20032;-88
2021/04/11 09:29:10;;;;;;;8.88;7.20;;;30.50;21.10;;;;;;5085300;28;20028;-86
2021/04/11 09:31:42;;;;;;;10.20;6.47;;;30.00;21.00;;;;;;5101776;28;20038;-81
2021/04/11 09:34:41;;;;;;;8.75;6.30;;;30.30;21.10;;;;;;5083172;28;20039;-80
2021/04/11 09:37:34;;;;;;;8.05;6.22;;;31.30;20.90;;;;;;5096819;28;20016;-79
2021/04/11 09:40:31;;;;;;;7.70;6.82;;;30.70;20.40;;;;;;5095856;28;20034;-83
2021/04/11 09:43:25;;;;;;;9.05;6.43;;;30.20;21.00;;;;;;5087747;28;20032;-80
2021/04/11 09:46:15;;;;;;;10.63;6.97;;;30.80;20.60;;;;;;5088927;28;20449;-80
2021/04/11 09:48:56;;;;;;;10.82;7.20;;;29.60;21.20;;;;;;5093885;28;20460;-81
2021/04/11 09:51:59;;;;;;;13.85;6.70;;;29.90;21.00;;;;;;5064089;28;20121;-83
2021/04/11 09:54:44;;;;;;;12.90;7.07;;;30.80;21.20;;;;;;5093300;28;20099;-78
2021/04/11 09:57:19;;;;;;;15.15;6.95;;;31.00;20.70;;;;;;5093450;28;20020;-78
2021/04/11 09:59:47;;;;;;;10.68;7.95;;;31.80;20.50;;;;;;5093028;28;20091;-80
2021/04/11 10:02:16;;;;;;;13.70;7.70;;;32.20;20.50;;;;;;5086815;28;20074;-75
2021/04/11 10:05:17;;;;;;;14.65;7.70;;;32.80;20.50;;;;;;5093058;28;20050;-80
2021/04/11 10:07:49;;;;;;;8.75;6.35;;;33.30;20.40;;;;;;5095369;28;20011;-82
2021/04/11 10:10:43;;;;;;;12.35;7.55;;;33.40;19.80;;;;;;5093310;28;20035;-80
2021/04/11 10:13:30;;;;;;;7.68;6.03;;;33.50;20.10;;;;;;5092750;28;20020;-80
2021/04/11 10:16:19;;;;;;;7.95;5.60;;;32.50;20.50;;;;;;5091532;28;20036;-78
2021/04/11 10:19:06;;;;;;;10.32;6.68;;;32.00;20.30;;;;;;5076317;28;20032;-78
2021/04/11 10:21:53;;;;;;;9.90;6.95;;;30.90;20.40;;;;;;5087072;28;20028;-78
2021/04/11 10:24:38;;;;;;;12.20;6.40;;;29.50;20.80;;;;;;5092188;28;20032;-77
2021/04/11 10:27:29;;;;;;;11.50;6.60;;;27.40;21.60;;;;;;5087131;28;20117;-78
2021/04/11 10:29:57;;;;;;;10.55;5.95;;;26.20;22.30;;;;;;5092958;28;20039;-77
2021/04/11 10:32:31;;;;;;;;;;;24.90;23.10;;;;;;5093325;28;20020;-78
2021/04/11 10:35:18;;;;;;;16.63;6.90;;;24.00;23.10;;;;;;5093182;28;20277;-77
2021/04/11 10:38:10;;;;;;;11.93;6.88;;;22.90;24.70;;;;;;5092772;28;20020;-79
2021/04/11 10:40:44;;;;;;;9.02;6.93;;;22.00;24.90;;;;;;5062168;28;20485;-78
2021/04/11 10:43:13;;;;;;;13.68;7.72;;;21.20;25.60;;;;;;5092875;28;20389;-78
2021/04/11 10:45:54;;;;;;;9.63;6.90;;;20.80;26.50;;;;;;5092869;28;20020;-77
2021/04/11 10:48:44;;;;;;;10.98;7.30;;;20.60;26.40;;;;;;5092970;28;20089;-78
2021/04/11 10:51:28;;;;;;;10.75;6.57;;;20.20;26.80;;;;;;5092688;28;20354;-78
2021/04/11 10:54:13;;;;;;;9.77;6.60;;;19.80;27.30;;;;;;5093099;28;20035;-78
2021/04/11 10:56:46;;;;;;;15.77;8.20;;;19.60;27.80;;;;;;5080284;28;20479;-78
2021/04/11 10:59:33;;;;;;;8.73;7.13;;;19.50;28.20;;;;;;5093018;28;20020;-77
2021/04/11 11:02:18;;;;;;;10.90;7.80;;;19.50;28.10;;;;;;5092618;28;20521;-76
2021/04/11 11:05:08;;;;;;;12.13;7.95;;;19.30;28.20;;;;;;5092246;28;20031;-79
2021/04/11 11:07:56;;;;;;;12.30;6.25;;;19.20;28.30;;;;;;5092503;28;20028;-77
2021/04/11 11:10:28;;;;;;;9.25;6.80;;;19.20;28.60;;;;;;5080126;28;20147;-78
2021/04/11 11:13:31;;;;;;;13.25;8.75;;;19.00;28.70;;;;;;5092466;28;20024;-77
2021/04/11 11:16:03;;;;;;;12.93;8.70;;;18.90;28.60;;;;;;5092086;28;20059;-78
2021/04/11 11:18:47;;;;;;;10.48;7.38;;;18.90;28.70;;;;;;5092143;28;20442;-78
2021/04/11 11:21:33;;;;;;;11.80;7.57;;;18.80;28.60;;;;;;5092959;28;20034;-77
2021/04/11 11:24:30;;;;;;;13.95;8.38;;;18.80;28.70;;;;;;5063202;28;20441;-78
2021/04/11 11:27:24;;;;;;;14.52;8.48;;;18.70;29.10;;;;;;5073900;28;20399;-78
2021/04/11 11:30:14;;;;;;;12.48;8.02;;;18.60;29.30;;;;;;5092152;28;20118;-78
2021/04/11 11:33:04;;;;;;;9.95;7.00;;;18.50;29.10;;;;;;5061577;28;20461;-77
2021/04/11 11:35:31;;;;;;;13.23;7.85;;;18.40;29.40;;;;;;5093560;28;20028;-78
2021/04/11 11:38:11;;;;;;;14.67;7.83;;;18.30;29.50;;;;;;5105088;28;20019;-77
2021/04/11 11:41:00;;;;;;;9.90;7.28;;;18.30;29.40;;;;;;5092222;28;20053;-77
2021/04/11 11:43:44;;;;;;;15.50;7.97;;;18.30;29.40;;;;;;5073956;28;20020;-78
2021/04/11 11:46:26;;;;;;;13.77;8.07;;;18.30;29.90;;;;;;5092014;28;20442;-78
2021/04/11 11:49:16;;;;;;;10.13;6.70;;;18.30;29.70;;;;;;5074252;28;20020;-77
2021/04/11 11:52:05;;;;;;;11.38;6.75;;;18.30;29.60;;;;;;5081454;28;20307;-77
2021/04/11 11:54:38;;;;;;;15.48;8.20;;;18.30;29.80;;;;;;5093280;28;20473;-80
2021/04/11 11:57:08;;;;;;;13.40;6.93;;;18.30;29.70;;;;;;5092204;28;20032;-78
2021/04/11 11:59:52;;;;;;;13.70;7.95;;;18.10;29.60;;;;;;5091833;28;20027;-78
2021/04/11 12:02:35;;;;;;;12.73;6.93;;;18.00;29.90;;;;;;5092125;28;20077;-77
2021/04/11 12:05:12;;;;;;;11.40;8.20;;;18.00;29.90;;;;;;5078527;28;20047;-78
2021/04/11 12:07:40;;;;;;;11.73;6.90;;;18.00;30.00;;;;;;5092091;28;20043;-78
2021/04/11 12:10:31;;;;;;;10.82;7.30;;;18.00;30.00;;;;;;5091942;28;20036;-78
2021/04/11 12:13:19;;;;;;;13.05;6.93;;;17.90;29.90;;;;;;5091629;28;20026;-78
2021/04/11 12:16:03;;;;;;;11.48;7.82;;;17.80;29.90;;;;;;5073133;28;20047;-77
2021/04/11 12:18:34;;;;;;;10.18;7.20;;;17.80;30.40;;;;;;5091750;28;20028;-77
2021/04/11 12:21:21;;;;;;;19.35;6.85;;;17.80;30.10;;;;;;5091737;28;20103;-77
2021/04/11 12:24:02;;;;;;;18.10;8.43;;;17.90;30.30;;;;;;5083065;28;20107;-78
2021/04/11 12:26:32;;;;;;;8.95;7.70;;;18.10;30.40;;;;;;5095635;28;20024;-78
2021/04/11 12:29:06;;;;;;;13.35;7.80;;;18.20;30.10;;;;;;5095312;28;20048;-79
2021/04/11 12:31:43;;;;;;;18.33;8.27;;;18.10;29.80;;;;;;5097744;28;20076;-77
2021/04/11 12:34:20;;;;;;;15.63;7.78;;;18.00;30.00;;;;;;5096140;28;20023;-77
2021/04/11 12:37:00;;;;;;;11.00;7.85;;;17.90;30.10;;;;;;5097954;28;20054;-78
2021/04/11 12:39:29;;;;;;;16.05;8.15;;;18.00;30.30;;;;;;5079162;28;20066;-77
2021/04/11 12:42:04;;;;;;;13.90;7.22;;;18.00;30.40;;;;;;5077096;28;20081;-78
2021/04/11 12:44:40;;;;;;;10.10;8.23;;;18.00;30.10;;;;;;5095203;28;20024;-78
2021/04/11 12:47:18;;;;;;;14.50;7.85;;;18.10;30.50;;;;;;5095229;28;20094;-78
2021/04/11 12:49:56;;;;;;;14.65;7.72;;;18.50;30.00;;;;;;5081657;28;20072;-78
2021/04/11 12:52:50;;;;;;;11.25;7.00;;;18.90;29.70;;;;;;5095110;28;20016;-78
2021/04/11 12:55:41;;;;;;;12.75;6.93;;;18.70;29.40;;;;;;5089379;28;20529;-78
2021/04/11 12:58:21;;;;;;;11.07;7.78;;;18.60;29.80;;;;;;5094483;28;20020;-79
2021/04/11 13:00:57;;;;;;;14.40;7.60;;;18.60;29.40;;;;;;5088331;28;20020;-80
2021/04/11 13:03:53;;;;;;;10.98;6.82;;;18.30;29.80;;;;;;5083083;28;20020;-81
2021/04/11 13:06:32;;;;;;;12.33;8.43;;;18.10;30.00;;;;;;5093465;28;20097;-83
2021/04/11 13:09:19;;;;;;;12.07;7.82;;;18.10;30.00;;;;;;5095098;28;20272;-83
2021/04/11 13:12:15;;;;;;;11.43;7.10;;;18.00;30.00;;;;;;5094092;28;20423;-80
2021/04/11 13:15:01;;;;;;;13.18;8.00;;;17.80;30.20;;;;;;5071582;28;20384;-81
2021/04/11 13:17:34;;;;;;;14.48;8.57;;;17.70;30.60;;;;;;5072869;28;20044;-79
2021/04/11 13:20:21;;;;;;;14.57;8.68;;;17.70;30.60;;;;;;5092401;28;20050;-80
2021/04/11 13:22:57;;;;;;;11.27;7.68;;;17.60;30.40;;;;;;5075944;28;20027;-81
2021/04/11 13:25:56;;;;;;;12.15;8.50;;;17.60;30.60;;;;;;5080372;28;20110;-83
2021/04/11 13:28:37;;;;;;;13.35;8.52;;;17.60;30.90;;;;;;5039748;28;20484;-80
2021/04/11 13:31:13;;;;;;;13.30;7.18;;;17.70;30.90;;;;;;5077723;28;20035;-76
2021/04/11 13:34:06;;;;;;;13.25;8.13;;;17.80;31.10;;;;;;5092947;28;20050;-77
2021/04/11 13:36:36;;;;;;;10.77;7.80;;;17.70;30.70;;;;;;5075140;28;20024;-77